sensor_id;sensor_type;location;lat;lon;timestamp;P1;durP1;ratioP1;P2;durP2;ratioP2
56599;SDS011;51832;48.152;11.530;2022-07-06T00:04:44;2.80;;;1.92;;
56599;SDS011;51832;48.152;11.530;2022-07-06T00:09:44;2.90;;;2.20;;
56599;SDS011;51832;48.152;11.530;2022-07-06T00:14:45;2.50;;;2.30;;
56599;SDS011;51832;48.152;11.530;2022-07-06T00:19:45;2.22;;;2.00;;
56599;SDS011;51832;48.152;11.530;2022-07-06T00:24:46;2.97;;;2.10;;
56599;SDS011;51832;48.152;11.530;2022-07-06T00:29:46;2.27;;;2.07;;
56599;SDS011;51832;48.152;11.530;2022-07-06T00:34:46;3.13;;;2.20;;
56599;SDS011;51832;48.152;11.530;2022-07-06T00:39:47;2.40;;;2.23;;
56599;SDS011;51832;48.152;11.530;2022-07-06T00:44:47;2.93;;;2.10;;
56599;SDS011;51832;48.152;11.530;2022-07-06T00:49:47;2.43;;;2.10;;
56599;SDS011;51832;48.152;11.530;2022-07-06T00:55:07;3.30;;;2.10;;
56599;SDS011;51832;48.152;11.530;2022-07-06T01:00:09;2.30;;;2.10;;
56599;SDS011;51832;48.152;11.530;2022-07-06T01:05:12;2.20;;;2.00;;
56599;SDS011;51832;48.152;11.530;2022-07-06T01:10:15;2.78;;;2.10;;
56599;SDS011;51832;48.152;11.530;2022-07-06T01:20:20;2.35;;;2.15;;
56599;SDS011;51832;48.152;11.530;2022-07-06T01:25:22;2.50;;;2.13;;
56599;SDS011;51832;48.152;11.530;2022-07-06T01:30:22;3.35;;;1.90;;
56599;SDS011;51832;48.152;11.530;2022-07-06T01:35:23;3.23;;;1.90;;
56599;SDS011;51832;48.152;11.530;2022-07-06T01:40:24;2.70;;;2.00;;
56599;SDS011;51832;48.152;11.530;2022-07-06T01:45:25;2.10;;;1.90;;
56599;SDS011;51832;48.152;11.530;2022-07-06T01:50:25;2.42;;;2.17;;
56599;SDS011;51832;48.152;11.530;2022-07-06T01:55:26;3.35;;;2.20;;
56599;SDS011;51832;48.152;11.530;2022-07-06T02:00:26;2.22;;;2.03;;
56599;SDS011;51832;48.152;11.530;2022-07-06T02:05:27;4.70;;;2.13;;
56599;SDS011;51832;48.152;11.530;2022-07-06T02:10:27;1.90;;;1.80;;
56599;SDS011;51832;48.152;11.530;2022-07-06T02:15:27;1.88;;;1.77;;
56599;SDS011;51832;48.152;11.530;2022-07-06T02:20:28;3.10;;;1.80;;
56599;SDS011;51832;48.152;11.530;2022-07-06T02:25:28;1.80;;;1.70;;
56599;SDS011;51832;48.152;11.530;2022-07-06T02:30:29;2.17;;;1.73;;
56599;SDS011;51832;48.152;11.530;2022-07-06T02:35:29;2.10;;;2.00;;
56599;SDS011;51832;48.152;11.530;2022-07-06T02:40:30;1.88;;;1.73;;
56599;SDS011;51832;48.152;11.530;2022-07-06T02:45:30;2.00;;;1.80;;
56599;SDS011;51832;48.152;11.530;2022-07-06T02:50:31;2.15;;;1.95;;
56599;SDS011;51832;48.152;11.530;2022-07-06T02:55:32;2.23;;;2.03;;
56599;SDS011;51832;48.152;11.530;2022-07-06T03:00:32;2.20;;;2.05;;
56599;SDS011;51832;48.152;11.530;2022-07-06T03:05:33;1.98;;;1.77;;
56599;SDS011;51832;48.152;11.530;2022-07-06T03:10:33;2.38;;;2.00;;
56599;SDS011;51832;48.152;11.530;2022-07-06T03:15:33;1.95;;;1.77;;
56599;SDS011;51832;48.152;11.530;2022-07-06T03:20:34;2.88;;;1.80;;
56599;SDS011;51832;48.152;11.530;2022-07-06T03:25:34;2.07;;;1.97;;
56599;SDS011;51832;48.152;11.530;2022-07-06T03:30:35;2.42;;;1.92;;
56599;SDS011;51832;48.152;11.530;2022-07-06T03:35:35;1.88;;;1.77;;
56599;SDS011;51832;48.152;11.530;2022-07-06T03:40:35;4.27;;;2.10;;
56599;SDS011;51832;48.152;11.530;2022-07-06T03:45:36;1.70;;;1.60;;
56599;SDS011;51832;48.152;11.530;2022-07-06T03:50:36;2.27;;;2.17;;
56599;SDS011;51832;48.152;11.530;2022-07-06T03:55:37;2.25;;;2.05;;
56599;SDS011;51832;48.152;11.530;2022-07-06T04:00:37;2.00;;;1.80;;
56599;SDS011;51832;48.152;11.530;2022-07-06T04:05:37;4.05;;;2.17;;
56599;SDS011;51832;48.152;11.530;2022-07-06T04:10:38;2.55;;;2.28;;
56599;SDS011;51832;48.152;11.530;2022-07-06T04:15:39;3.30;;;2.10;;
56599;SDS011;51832;48.152;11.530;2022-07-06T04:20:39;2.15;;;1.95;;
56599;SDS011;51832;48.152;11.530;2022-07-06T04:25:39;2.30;;;2.10;;
56599;SDS011;51832;48.152;11.530;2022-07-06T04:30:40;1.93;;;1.83;;
56599;SDS011;51832;48.152;11.530;2022-07-06T04:35:40;4.00;;;1.92;;
56599;SDS011;51832;48.152;11.530;2022-07-06T04:40:41;1.88;;;1.77;;
56599;SDS011;51832;48.152;11.530;2022-07-06T04:45:41;2.97;;;2.08;;
56599;SDS011;51832;48.152;11.530;2022-07-06T04:50:42;3.40;;;2.27;;
56599;SDS011;51832;48.152;11.530;2022-07-06T04:55:42;2.38;;;2.05;;
56599;SDS011;51832;48.152;11.530;2022-07-06T05:00:42;2.30;;;2.10;;
56599;SDS011;51832;48.152;11.530;2022-07-06T05:05:43;2.33;;;1.90;;
56599;SDS011;51832;48.152;11.530;2022-07-06T05:10:43;2.55;;;2.35;;
56599;SDS011;51832;48.152;11.530;2022-07-06T05:15:44;2.50;;;2.30;;
56599;SDS011;51832;48.152;11.530;2022-07-06T05:20:44;3.25;;;2.60;;
56599;SDS011;51832;48.152;11.530;2022-07-06T05:25:44;2.40;;;2.20;;
56599;SDS011;51832;48.152;11.530;2022-07-06T05:30:45;3.13;;;2.20;;
56599;SDS011;51832;48.152;11.530;2022-07-06T05:35:45;3.40;;;2.00;;
56599;SDS011;51832;48.152;11.530;2022-07-06T05:40:46;2.30;;;2.10;;
56599;SDS011;51832;48.152;11.530;2022-07-06T05:45:46;3.17;;;2.20;;
56599;SDS011;51832;48.152;11.530;2022-07-06T05:50:47;2.30;;;2.10;;
56599;SDS011;51832;48.152;11.530;2022-07-06T05:55:47;2.72;;;2.20;;
56599;SDS011;51832;48.152;11.530;2022-07-06T06:00:48;4.85;;;2.28;;
56599;SDS011;51832;48.152;11.530;2022-07-06T06:05:48;4.30;;;2.30;;
56599;SDS011;51832;48.152;11.530;2022-07-06T06:10:49;3.75;;;2.20;;
56599;SDS011;51832;48.152;11.530;2022-07-06T06:15:50;2.95;;;2.65;;
56599;SDS011;51832;48.152;11.530;2022-07-06T06:20:50;2.63;;;2.43;;
56599;SDS011;51832;48.152;11.530;2022-07-06T06:25:50;2.53;;;2.33;;
56599;SDS011;51832;48.152;11.530;2022-07-06T06:30:51;3.72;;;2.67;;
56599;SDS011;51832;48.152;11.530;2022-07-06T06:35:52;4.45;;;2.97;;
56599;SDS011;51832;48.152;11.530;2022-07-06T06:40:54;4.33;;;2.50;;
56599;SDS011;51832;48.152;11.530;2022-07-06T06:45:55;4.60;;;2.92;;
56599;SDS011;51832;48.152;11.530;2022-07-06T06:50:55;3.03;;;2.72;;
56599;SDS011;51832;48.152;11.530;2022-07-06T06:55:56;4.27;;;3.10;;
56599;SDS011;51832;48.152;11.530;2022-07-06T07:00:56;3.40;;;3.20;;
56599;SDS011;51832;48.152;11.530;2022-07-06T07:05:57;4.40;;;3.20;;
56599;SDS011;51832;48.152;11.530;2022-07-06T07:10:58;3.13;;;2.92;;
56599;SDS011;51832;48.152;11.530;2022-07-06T07:15:58;4.65;;;3.20;;
56599;SDS011;51832;48.152;11.530;2022-07-06T07:20:59;3.40;;;3.10;;
56599;SDS011;51832;48.152;11.530;2022-07-06T07:26:00;3.10;;;2.90;;
56599;SDS011;51832;48.152;11.530;2022-07-06T07:31:00;3.72;;;2.80;;
56599;SDS011;51832;48.152;11.530;2022-07-06T07:36:00;3.57;;;2.83;;
56599;SDS011;51832;48.152;11.530;2022-07-06T07:41:01;3.93;;;3.63;;
56599;SDS011;51832;48.152;11.530;2022-07-06T07:46:02;3.67;;;3.33;;
56599;SDS011;51832;48.152;11.530;2022-07-06T07:51:02;3.60;;;2.80;;
56599;SDS011;51832;48.152;11.530;2022-07-06T07:56:02;3.22;;;2.85;;
56599;SDS011;51832;48.152;11.530;2022-07-06T08:01:03;4.07;;;3.78;;
56599;SDS011;51832;48.152;11.530;2022-07-06T08:06:04;3.00;;;2.80;;
56599;SDS011;51832;48.152;11.530;2022-07-06T08:11:04;10.32;;;5.10;;
56599;SDS011;51832;48.152;11.530;2022-07-06T08:16:05;3.28;;;2.97;;
56599;SDS011;51832;48.152;11.530;2022-07-06T08:21:06;4.20;;;3.20;;
56599;SDS011;51832;48.152;11.530;2022-07-06T08:26:06;4.57;;;4.15;;
56599;SDS011;51832;48.152;11.530;2022-07-06T08:31:07;5.88;;;3.10;;
56599;SDS011;51832;48.152;11.530;2022-07-06T08:36:07;3.90;;;3.20;;
56599;SDS011;51832;48.152;11.530;2022-07-06T08:41:08;3.83;;;3.53;;
56599;SDS011;51832;48.152;11.530;2022-07-06T08:46:09;4.72;;;3.92;;
56599;SDS011;51832;48.152;11.530;2022-07-06T08:51:13;5.50;;;3.90;;
56599;SDS011;51832;48.152;11.530;2022-07-06T08:56:14;4.03;;;3.38;;
56599;SDS011;51832;48.152;11.530;2022-07-06T09:01:16;4.07;;;3.67;;
56599;SDS011;51832;48.152;11.530;2022-07-06T09:06:19;4.93;;;3.47;;
56599;SDS011;51832;48.152;11.530;2022-07-06T09:11:25;5.15;;;4.10;;
56599;SDS011;51832;48.152;11.530;2022-07-06T09:16:26;5.45;;;3.90;;
56599;SDS011;51832;48.152;11.530;2022-07-06T09:21:31;3.45;;;3.15;;
56599;SDS011;51832;48.152;11.530;2022-07-06T09:26:34;6.75;;;4.22;;
56599;SDS011;51832;48.152;11.530;2022-07-06T09:31:35;5.20;;;3.72;;
56599;SDS011;51832;48.152;11.530;2022-07-06T09:36:39;5.38;;;3.83;;
56599;SDS011;51832;48.152;11.530;2022-07-06T09:41:40;3.85;;;3.55;;
56599;SDS011;51832;48.152;11.530;2022-07-06T09:46:41;4.07;;;3.50;;
56599;SDS011;51832;48.152;11.530;2022-07-06T09:51:42;4.60;;;3.37;;
56599;SDS011;51832;48.152;11.530;2022-07-06T09:56:46;4.60;;;3.88;;
56599;SDS011;51832;48.152;11.530;2022-07-06T10:01:51;5.32;;;3.70;;
56599;SDS011;51832;48.152;11.530;2022-07-06T10:06:55;4.22;;;3.60;;
56599;SDS011;51832;48.152;11.530;2022-07-06T10:11:57;4.53;;;3.60;;
56599;SDS011;51832;48.152;11.530;2022-07-06T10:17:00;3.25;;;2.95;;
56599;SDS011;51832;48.152;11.530;2022-07-06T10:22:03;3.33;;;3.00;;
56599;SDS011;51832;48.152;11.530;2022-07-06T10:27:04;6.25;;;3.60;;
56599;SDS011;51832;48.152;11.530;2022-07-06T10:32:05;4.82;;;3.72;;
56599;SDS011;51832;48.152;11.530;2022-07-06T10:37:07;3.80;;;3.45;;
56599;SDS011;51832;48.152;11.530;2022-07-06T10:42:42;3.25;;;2.95;;
56599;SDS011;51832;48.152;11.530;2022-07-06T10:47:43;3.67;;;3.38;;
56599;SDS011;51832;48.152;11.530;2022-07-06T10:52:47;6.17;;;3.10;;
56599;SDS011;51832;48.152;11.530;2022-07-06T10:57:52;4.32;;;3.92;;
56599;SDS011;51832;48.152;11.530;2022-07-06T11:02:52;4.53;;;3.58;;
56599;SDS011;51832;48.152;11.530;2022-07-06T11:07:53;3.53;;;3.23;;
56599;SDS011;51832;48.152;11.530;2022-07-06T11:13:00;4.72;;;3.30;;
56599;SDS011;51832;48.152;11.530;2022-07-06T11:18:10;4.28;;;2.88;;
56599;SDS011;51832;48.152;11.530;2022-07-06T11:23:14;3.88;;;3.40;;
56599;SDS011;51832;48.152;11.530;2022-07-06T11:28:16;3.30;;;2.80;;
56599;SDS011;51832;48.152;11.530;2022-07-06T11:33:50;4.15;;;3.05;;
56599;SDS011;51832;48.152;11.530;2022-07-06T11:38:48;3.40;;;2.85;;
56599;SDS011;51832;48.152;11.530;2022-07-06T11:43:49;4.03;;;3.63;;
56599;SDS011;51832;48.152;11.530;2022-07-06T11:48:54;4.32;;;3.30;;
56599;SDS011;51832;48.152;11.530;2022-07-06T11:54:01;3.45;;;3.15;;
56599;SDS011;51832;48.152;11.530;2022-07-06T11:59:07;3.20;;;2.90;;
56599;SDS011;51832;48.152;11.530;2022-07-06T12:04:10;2.92;;;2.63;;
56599;SDS011;51832;48.152;11.530;2022-07-06T12:09:11;3.63;;;3.13;;
56599;SDS011;51832;48.152;11.530;2022-07-06T12:14:20;3.47;;;2.60;;
56599;SDS011;51832;48.152;11.530;2022-07-06T12:19:21;3.92;;;3.15;;
56599;SDS011;51832;48.152;11.530;2022-07-06T12:24:25;3.13;;;2.83;;
56599;SDS011;51832;48.152;11.530;2022-07-06T12:29:28;3.38;;;3.10;;
56599;SDS011;51832;48.152;11.530;2022-07-06T12:34:29;2.50;;;2.30;;
56599;SDS011;51832;48.152;11.530;2022-07-06T12:39:41;3.08;;;2.72;;
56599;SDS011;51832;48.152;11.530;2022-07-06T12:44:43;3.47;;;2.60;;
56599;SDS011;51832;48.152;11.530;2022-07-06T12:49:46;2.90;;;2.70;;
56599;SDS011;51832;48.152;11.530;2022-07-06T12:54:47;4.55;;;2.53;;
56599;SDS011;51832;48.152;11.530;2022-07-06T13:10:05;3.08;;;2.72;;
56599;SDS011;51832;48.152;11.530;2022-07-06T13:15:07;2.95;;;2.75;;
56599;SDS011;51832;48.152;11.530;2022-07-06T13:20:09;3.08;;;2.88;;
56599;SDS011;51832;48.152;11.530;2022-07-06T13:25:11;3.00;;;2.80;;
56599;SDS011;51832;48.152;11.530;2022-07-06T13:30:13;3.00;;;2.72;;
56599;SDS011;51832;48.152;11.530;2022-07-06T13:35:13;4.07;;;2.65;;
56599;SDS011;51832;48.152;11.530;2022-07-06T13:40:14;3.05;;;2.63;;
56599;SDS011;51832;48.152;11.530;2022-07-06T13:45:14;2.50;;;2.20;;
56599;SDS011;51832;48.152;11.530;2022-07-06T13:50:14;2.30;;;2.10;;
56599;SDS011;51832;48.152;11.530;2022-07-06T13:55:15;5.18;;;4.38;;
56599;SDS011;51832;48.152;11.530;2022-07-06T14:00:15;2.80;;;2.60;;
56599;SDS011;51832;48.152;11.530;2022-07-06T14:10:18;2.50;;;2.30;;
56599;SDS011;51832;48.152;11.530;2022-07-06T14:15:19;3.47;;;2.63;;
56599;SDS011;51832;48.152;11.530;2022-07-06T14:20:19;2.95;;;2.50;;
56599;SDS011;51832;48.152;11.530;2022-07-06T14:25:20;2.78;;;2.42;;
56599;SDS011;51832;48.152;11.530;2022-07-06T14:30:20;2.60;;;2.40;;
56599;SDS011;51832;48.152;11.530;2022-07-06T14:35:21;2.78;;;2.50;;
56599;SDS011;51832;48.152;11.530;2022-07-06T14:40:22;3.53;;;2.72;;
56599;SDS011;51832;48.152;11.530;2022-07-06T14:45:22;2.53;;;2.10;;
56599;SDS011;51832;48.152;11.530;2022-07-06T14:50:23;2.47;;;2.28;;
56599;SDS011;51832;48.152;11.530;2022-07-06T14:55:23;2.75;;;2.28;;
56599;SDS011;51832;48.152;11.530;2022-07-06T15:00:24;2.63;;;2.42;;
56599;SDS011;51832;48.152;11.530;2022-07-06T15:05:24;2.83;;;2.63;;
56599;SDS011;51832;48.152;11.530;2022-07-06T15:10:25;4.20;;;2.30;;
56599;SDS011;51832;48.152;11.530;2022-07-06T15:15:25;2.25;;;2.08;;
56599;SDS011;51832;48.152;11.530;2022-07-06T15:20:26;2.70;;;2.30;;
56599;SDS011;51832;48.152;11.530;2022-07-06T15:25:26;3.23;;;2.30;;
56599;SDS011;51832;48.152;11.530;2022-07-06T15:30:27;2.70;;;2.40;;
56599;SDS011;51832;48.152;11.530;2022-07-06T15:35:29;3.35;;;2.33;;
56599;SDS011;51832;48.152;11.530;2022-07-06T15:40:29;2.27;;;2.13;;
56599;SDS011;51832;48.152;11.530;2022-07-06T15:45:34;3.15;;;1.95;;
56599;SDS011;51832;48.152;11.530;2022-07-06T15:50:34;2.23;;;2.03;;
56599;SDS011;51832;48.152;11.530;2022-07-06T15:55:35;2.83;;;2.20;;
56599;SDS011;51832;48.152;11.530;2022-07-06T16:00:35;2.75;;;2.08;;
56599;SDS011;51832;48.152;11.530;2022-07-06T16:05:36;2.65;;;2.15;;
56599;SDS011;51832;48.152;11.530;2022-07-06T16:10:37;2.17;;;1.90;;
56599;SDS011;51832;48.152;11.530;2022-07-06T16:15:38;4.03;;;2.28;;
56599;SDS011;51832;48.152;11.530;2022-07-06T16:20:38;2.00;;;1.90;;
56599;SDS011;51832;48.152;11.530;2022-07-06T16:25:39;3.88;;;2.20;;
56599;SDS011;51832;48.152;11.530;2022-07-06T16:30:40;3.15;;;2.17;;
56599;SDS011;51832;48.152;11.530;2022-07-06T16:35:40;1.92;;;1.83;;
56599;SDS011;51832;48.152;11.530;2022-07-06T16:40:41;2.55;;;1.90;;
56599;SDS011;51832;48.152;11.530;2022-07-06T16:45:42;3.60;;;2.35;;
56599;SDS011;51832;48.152;11.530;2022-07-06T16:50:42;2.78;;;2.13;;
56599;SDS011;51832;48.152;11.530;2022-07-06T16:55:43;2.45;;;2.08;;
56599;SDS011;51832;48.152;11.530;2022-07-06T17:00:43;5.10;;;2.37;;
56599;SDS011;51832;48.152;11.530;2022-07-06T17:05:44;4.20;;;2.40;;
56599;SDS011;51832;48.152;11.530;2022-07-06T17:10:45;2.93;;;2.20;;
56599;SDS011;51832;48.152;11.530;2022-07-06T17:15:46;2.37;;;1.97;;
56599;SDS011;51832;48.152;11.530;2022-07-06T17:20:46;2.47;;;2.27;;
56599;SDS011;51832;48.152;11.530;2022-07-06T17:30:48;2.50;;;2.30;;
56599;SDS011;51832;48.152;11.530;2022-07-06T17:35:49;2.38;;;2.17;;
56599;SDS011;51832;48.152;11.530;2022-07-06T17:40:50;3.42;;;2.38;;
56599;SDS011;51832;48.152;11.530;2022-07-06T17:45:50;2.30;;;2.10;;
56599;SDS011;51832;48.152;11.530;2022-07-06T17:50:50;2.97;;;2.77;;
56599;SDS011;51832;48.152;11.530;2022-07-06T17:55:51;2.47;;;2.10;;
56599;SDS011;51832;48.152;11.530;2022-07-06T18:00:51;2.40;;;2.20;;
56599;SDS011;51832;48.152;11.530;2022-07-06T18:05:52;2.55;;;2.25;;
56599;SDS011;51832;48.152;11.530;2022-07-06T18:15:53;3.33;;;2.73;;
56599;SDS011;51832;48.152;11.530;2022-07-06T18:20:55;2.70;;;2.50;;
56599;SDS011;51832;48.152;11.530;2022-07-06T18:25:57;2.67;;;2.47;;
56599;SDS011;51832;48.152;11.530;2022-07-06T18:31:00;3.45;;;2.83;;
56599;SDS011;51832;48.152;11.530;2022-07-06T18:36:00;3.13;;;2.33;;
56599;SDS011;51832;48.152;11.530;2022-07-06T18:41:01;2.90;;;2.23;;
56599;SDS011;51832;48.152;11.530;2022-07-06T18:46:02;2.67;;;2.23;;
56599;SDS011;51832;48.152;11.530;2022-07-06T18:51:03;2.60;;;2.40;;
56599;SDS011;51832;48.152;11.530;2022-07-06T18:56:04;2.88;;;2.60;;
56599;SDS011;51832;48.152;11.530;2022-07-06T19:01:04;2.97;;;2.38;;
56599;SDS011;51832;48.152;11.530;2022-07-06T19:06:05;3.38;;;2.42;;
56599;SDS011;51832;48.152;11.530;2022-07-06T19:11:06;4.07;;;2.70;;
56599;SDS011;51832;48.152;11.530;2022-07-06T19:16:06;3.03;;;2.60;;
56599;SDS011;51832;48.152;11.530;2022-07-06T19:21:07;3.93;;;2.43;;
56599;SDS011;51832;48.152;11.530;2022-07-06T19:26:08;4.83;;;2.50;;
56599;SDS011;51832;48.152;11.530;2022-07-06T19:31:08;2.33;;;2.17;;
56599;SDS011;51832;48.152;11.530;2022-07-06T19:36:09;2.47;;;2.30;;
56599;SDS011;51832;48.152;11.530;2022-07-06T19:41:09;2.63;;;2.38;;
56599;SDS011;51832;48.152;11.530;2022-07-06T19:46:09;2.53;;;2.33;;
56599;SDS011;51832;48.152;11.530;2022-07-06T19:51:10;3.33;;;2.23;;
56599;SDS011;51832;48.152;11.530;2022-07-06T19:56:10;3.20;;;1.90;;
56599;SDS011;51832;48.152;11.530;2022-07-06T20:01:11;2.60;;;2.40;;
56599;SDS011;51832;48.152;11.530;2022-07-06T20:06:11;4.85;;;2.60;;
56599;SDS011;51832;48.152;11.530;2022-07-06T20:11:12;3.03;;;2.38;;
56599;SDS011;51832;48.152;11.530;2022-07-06T20:16:13;3.47;;;2.50;;
56599;SDS011;51832;48.152;11.530;2022-07-06T20:21:15;3.35;;;2.92;;
56599;SDS011;51832;48.152;11.530;2022-07-06T20:26:15;3.13;;;2.80;;
56599;SDS011;51832;48.152;11.530;2022-07-06T20:31:16;3.77;;;2.60;;
56599;SDS011;51832;48.152;11.530;2022-07-06T20:36:16;3.60;;;2.80;;
56599;SDS011;51832;48.152;11.530;2022-07-06T20:41:17;3.40;;;2.90;;
56599;SDS011;51832;48.152;11.530;2022-07-06T20:46:17;6.03;;;3.30;;
56599;SDS011;51832;48.152;11.530;2022-07-06T20:51:18;3.10;;;2.80;;
56599;SDS011;51832;48.152;11.530;2022-07-06T20:56:18;4.20;;;3.60;;
56599;SDS011;51832;48.152;11.530;2022-07-06T21:01:19;5.00;;;3.33;;
56599;SDS011;51832;48.152;11.530;2022-07-06T21:06:19;3.42;;;3.13;;
56599;SDS011;51832;48.152;11.530;2022-07-06T21:11:20;3.60;;;3.30;;
56599;SDS011;51832;48.152;11.530;2022-07-06T21:16:21;4.80;;;4.30;;
56599;SDS011;51832;48.152;11.530;2022-07-06T21:21:21;3.30;;;3.00;;
56599;SDS011;51832;48.152;11.530;2022-07-06T21:26:22;3.63;;;3.33;;
56599;SDS011;51832;48.152;11.530;2022-07-06T21:31:23;4.20;;;3.33;;
56599;SDS011;51832;48.152;11.530;2022-07-06T21:36:23;3.40;;;3.10;;
56599;SDS011;51832;48.152;11.530;2022-07-06T21:41:23;3.43;;;3.00;;
56599;SDS011;51832;48.152;11.530;2022-07-06T21:46:24;3.70;;;2.80;;
56599;SDS011;51832;48.152;11.530;2022-07-06T21:51:24;3.20;;;2.80;;
56599;SDS011;51832;48.152;11.530;2022-07-06T21:56:25;2.50;;;2.30;;
56599;SDS011;51832;48.152;11.530;2022-07-06T22:01:25;4.60;;;2.90;;
56599;SDS011;51832;48.152;11.530;2022-07-06T22:06:26;2.97;;;2.28;;
56599;SDS011;51832;48.152;11.530;2022-07-06T22:11:26;3.20;;;2.37;;
56599;SDS011;51832;48.152;11.530;2022-07-06T22:16:26;2.50;;;2.30;;
56599;SDS011;51832;48.152;11.530;2022-07-06T22:21:28;2.65;;;2.45;;
56599;SDS011;51832;48.152;11.530;2022-07-06T22:26:28;4.10;;;2.33;;
56599;SDS011;51832;48.152;11.530;2022-07-06T22:31:30;4.07;;;2.67;;
56599;SDS011;51832;48.152;11.530;2022-07-06T22:36:31;3.60;;;2.58;;
56599;SDS011;51832;48.152;11.530;2022-07-06T22:41:33;3.88;;;2.70;;
56599;SDS011;51832;48.152;11.530;2022-07-06T22:46:35;3.50;;;3.20;;
56599;SDS011;51832;48.152;11.530;2022-07-06T22:51:36;3.50;;;3.20;;
56599;SDS011;51832;48.152;11.530;2022-07-06T22:56:36;2.72;;;2.53;;
56599;SDS011;51832;48.152;11.530;2022-07-06T23:01:37;2.65;;;2.45;;
56599;SDS011;51832;48.152;11.530;2022-07-06T23:06:37;2.70;;;2.50;;
56599;SDS011;51832;48.152;11.530;2022-07-06T23:11:37;3.83;;;2.27;;
56599;SDS011;51832;48.152;11.530;2022-07-06T23:16:38;2.72;;;2.42;;
56599;SDS011;51832;48.152;11.530;2022-07-06T23:21:39;2.50;;;2.30;;
56599;SDS011;51832;48.152;11.530;2022-07-06T23:26:39;3.37;;;2.60;;
56599;SDS011;51832;48.152;11.530;2022-07-06T23:31:39;4.35;;;2.40;;
56599;SDS011;51832;48.152;11.530;2022-07-06T23:36:40;4.13;;;2.20;;
56599;SDS011;51832;48.152;11.530;2022-07-06T23:41:40;2.30;;;2.10;;
56599;SDS011;51832;48.152;11.530;2022-07-06T23:46:41;2.80;;;2.08;;
56599;SDS011;51832;48.152;11.530;2022-07-06T23:51:41;3.38;;;2.30;;
56599;SDS011;51832;48.152;11.530;2022-07-06T23:56:42;3.13;;;2.35;;
